Time;durP1;ratioP1;P1;durP2;ratioP2;P2;SDS_P1;SDS_P2;PMS_P1;PMS_P2;Temp;Humidity;BMP_temperature;BMP_pressure;BME280_temperature;BME280_humidity;BME280_pressure;Samples;Min_cycle;Max_cycle;Signal;HPM_P1;HPM_P2
2023/06/27 00:01:26;;;;;;;7.85;2.83;;;17.10;99.90;;;;;;5056857;28;20624;-64
2023/06/27 00:03:52;;;;;;;7.05;2.90;;;17.10;99.90;;;;;;5056623;28;20233;-64
2023/06/27 00:06:19;;;;;;;6.45;2.75;;;17.10;99.90;;;;;;5056831;28;20258;-65
2023/06/27 00:08:47;;;;;;;7.13;3.10;;;17.10;99.90;;;;;;5056602;28;20164;-64
2023/06/27 00:11:13;;;;;;;6.47;2.92;;;17.10;99.90;;;;;;5056830;28;20172;-64
2023/06/27 00:13:41;;;;;;;7.82;2.50;;;17.10;99.90;;;;;;5056710;28;20203;-64
2023/06/27 00:16:13;;;;;;;8.65;2.78;;;17.00;99.90;;;;;;5056591;28;20537;-64
2023/06/27 00:18:40;;;;;;;8.30;2.60;;;17.00;99.90;;;;;;5056409;28;20238;-63
2023/06/27 00:21:06;;;;;;;7.68;2.53;;;17.00;99.90;;;;;;5056418;28;20179;-64
2023/06/27 00:23:35;;;;;;;8.40;2.95;;;17.10;99.90;;;;;;5056432;28;20249;-64
2023/06/27 00:26:02;;;;;;;7.30;2.40;;;17.00;99.90;;;;;;5056572;28;20180;-64
2023/06/27 00:28:28;;;;;;;7.57;2.90;;;16.90;99.90;;;;;;5056378;28;20211;-64
2023/06/27 00:30:54;;;;;;;9.45;2.67;;;16.80;99.90;;;;;;5056235;28;20167;-63
2023/06/27 00:33:19;;;;;;;8.93;2.78;;;16.90;99.90;;;;;;5056211;28;20250;-63
2023/06/27 00:35:45;;;;;;;8.68;2.70;;;16.80;99.90;;;;;;5056120;28;20174;-64
2023/06/27 00:38:11;;;;;;;6.47;2.67;;;16.80;99.90;;;;;;5056318;28;20213;-63
2023/06/27 00:40:37;;;;;;;5.53;2.55;;;16.80;99.90;;;;;;5056198;28;20183;-64
2023/06/27 00:43:02;;;;;;;5.93;2.60;;;16.90;99.90;;;;;;5056074;28;20179;-63
2023/06/27 00:45:28;;;;;;;8.88;2.40;;;16.80;99.90;;;;;;5055956;28;20215;-64
2023/06/27 00:47:56;;;;;;;7.45;2.60;;;16.70;99.90;;;;;;5055966;28;20214;-64
2023/06/27 00:50:24;;;;;;;7.03;2.42;;;16.70;99.90;;;;;;5055779;28;20640;-64
2023/06/27 00:52:51;;;;;;;7.15;2.47;;;16.70;99.90;;;;;;5056070;28;20176;-63
2023/06/27 00:55:17;;;;;;;7.45;2.95;;;16.60;99.90;;;;;;5055023;28;20262;-64
2023/06/27 00:57:47;;;;;;;8.95;3.03;;;16.70;99.90;;;;;;5055800;28;20186;-64
2023/06/27 01:00:14;;;;;;;9.13;2.90;;;16.70;99.90;;;;;;5055856;28;20274;-63
2023/06/27 01:02:39;;;;;;;8.07;2.70;;;16.70;99.90;;;;;;5055671;28;20168;-63
2023/06/27 01:05:06;;;;;;;10.57;3.00;;;16.70;99.90;;;;;;5037556;28;20686;-63
2023/06/27 01:07:46;;;;;;;10.20;2.80;;;16.70;99.90;;;;;;5055852;28;20256;-63
2023/06/27 01:10:27;;;;;;;5.35;2.55;;;16.80;99.90;;;;;;5055590;28;20254;-64
2023/06/27 01:13:15;;;;;;;7.32;2.50;;;16.70;99.90;;;;;;5055567;28;20159;-64
2023/06/27 01:15:42;;;;;;;7.82;2.83;;;16.70;99.90;;;;;;5055478;28;20172;-63
2023/06/27 01:18:11;;;;;;;6.55;2.50;;;16.70;99.90;;;;;;5055237;28;20223;-63
2023/06/27 01:20:37;;;;;;;7.32;2.97;;;16.60;99.90;;;;;;5055587;28;20171;-64
2023/06/27 01:23:22;;;;;;;5.85;2.70;;;16.50;99.90;;;;;;5055328;28;20655;-63
2023/06/27 01:25:50;;;;;;;8.55;3.20;;;16.60;99.90;;;;;;5055266;28;20190;-63
2023/06/27 01:28:17;;;;;;;10.45;3.20;;;16.50;99.90;;;;;;5055311;28;20179;-63
2023/06/27 01:30:43;;;;;;;6.93;2.50;;;16.50;99.90;;;;;;5055343;28;20214;-63
2023/06/27 01:33:19;;;;;;;9.25;3.00;;;16.50;99.90;;;;;;5055188;28;20199;-63
2023/06/27 01:36:02;;;;;;;7.07;2.95;;;16.40;99.90;;;;;;5055061;28;20175;-63
2023/06/27 01:38:35;;;;;;;9.18;2.90;;;16.50;99.90;;;;;;5054618;28;20186;-64
2023/06/27 01:41:06;;;;;;;9.75;2.90;;;16.50;99.90;;;;;;5054601;28;20207;-63
2023/06/27 01:43:32;;;;;;;9.55;3.35;;;16.50;99.90;;;;;;5054985;28;20221;-64
2023/06/27 01:45:58;;;;;;;9.57;3.15;;;16.50;99.90;;;;;;5054967;28;20190;-63
2023/06/27 01:48:24;;;;;;;10.38;3.08;;;16.40;99.90;;;;;;5054884;28;20171;-64
2023/06/27 01:50:53;;;;;;;7.70;3.38;;;16.40;99.90;;;;;;5054649;28;20278;-63
2023/06/27 01:53:19;;;;;;;7.53;3.22;;;16.30;99.90;;;;;;5054981;28;20171;-63
2023/06/27 01:55:45;;;;;;;9.25;3.30;;;16.40;99.90;;;;;;5054851;28;20233;-63
2023/06/27 01:58:11;;;;;;;7.47;2.72;;;16.40;99.90;;;;;;5054715;28;20183;-64
2023/06/27 02:00:37;;;;;;;12.38;3.50;;;16.40;99.90;;;;;;5054725;28;20175;-63
2023/06/27 02:03:03;;;;;;;10.85;3.45;;;16.30;99.90;;;;;;5054589;28;20175;-64
2023/06/27 02:05:28;;;;;;;13.63;3.63;;;16.30;99.90;;;;;;5054278;28;20203;-63
2023/06/27 02:07:54;;;;;;;8.30;3.20;;;16.30;99.90;;;;;;5054388;28;20656;-64
2023/06/27 02:10:20;;;;;;;8.57;3.13;;;16.40;99.90;;;;;;5054484;28;20171;-63
2023/06/27 02:12:46;;;;;;;9.27;2.83;;;16.30;99.90;;;;;;5054467;28;20184;-64
2023/06/27 02:15:12;;;;;;;9.15;3.00;;;16.30;99.90;;;;;;5054314;28;20187;-64
2023/06/27 02:17:37;;;;;;;7.65;2.85;;;16.30;99.90;;;;;;5054310;28;20311;-63
2023/06/27 02:20:04;;;;;;;9.18;3.30;;;16.30;99.90;;;;;;5054202;28;20176;-63
2023/06/27 02:22:30;;;;;;;7.15;2.95;;;16.40;99.90;;;;;;5054340;28;20640;-63
2023/06/27 02:24:56;;;;;;;10.23;3.33;;;16.30;99.90;;;;;;5054233;28;20292;-64
2023/06/27 02:27:21;;;;;;;8.98;3.10;;;16.20;99.90;;;;;;5054134;28;20629;-63
2023/06/27 02:29:47;;;;;;;9.75;3.28;;;16.20;99.90;;;;;;5054064;28;20175;-63
2023/06/27 02:32:12;;;;;;;11.43;3.40;;;16.10;99.90;;;;;;5053985;28;20198;-63
2023/06/27 02:34:38;;;;;;;12.15;3.53;;;16.10;99.90;;;;;;5053982;28;20629;-63
2023/06/27 02:37:04;;;;;;;9.15;3.10;;;16.10;99.90;;;;;;5054039;28;20171;-63
2023/06/27 02:39:29;;;;;;;9.38;3.40;;;16.10;99.90;;;;;;5054033;28;20171;-64
2023/06/27 02:41:55;;;;;;;9.35;3.30;;;16.20;99.90;;;;;;5053790;28;20571;-63
2023/06/27 02:44:21;;;;;;;10.15;3.22;;;16.20;99.90;;;;;;5053727;28;20729;-64
2023/06/27 02:46:46;;;;;;;11.38;3.20;;;16.10;99.90;;;;;;5053774;28;20262;-63
2023/06/27 02:49:12;;;;;;;9.68;3.42;;;16.20;99.90;;;;;;5053655;28;20257;-63
2023/06/27 02:51:38;;;;;;;11.40;3.65;;;16.10;99.90;;;;;;5053858;28;20171;-63
2023/06/27 02:54:03;;;;;;;9.35;3.67;;;16.20;99.90;;;;;;5053761;28;20540;-63
2023/06/27 02:56:29;;;;;;;8.45;3.22;;;16.20;99.90;;;;;;5053670;28;20182;-63
2023/06/27 02:58:54;;;;;;;9.77;3.83;;;16.30;99.90;;;;;;5053624;28;20171;-63
2023/06/27 03:01:20;;;;;;;10.75;3.55;;;16.20;99.90;;;;;;5053579;28;20228;-63
2023/06/27 03:03:46;;;;;;;14.15;3.50;;;16.30;99.90;;;;;;5053365;28;20298;-63
2023/06/27 03:06:12;;;;;;;12.52;3.58;;;16.20;99.90;;;;;;5053399;28;20179;-63
2023/06/27 03:08:38;;;;;;;9.55;3.15;;;16.10;99.90;;;;;;5053521;28;20179;-63
2023/06/27 03:11:04;;;;;;;12.77;3.60;;;16.10;99.90;;;;;;5053432;28;20183;-63
2023/06/27 03:13:29;;;;;;;11.48;4.10;;;16.00;99.90;;;;;;5035603;28;20542;-63
2023/06/27 03:15:55;;;;;;;8.50;3.38;;;15.90;99.90;;;;;;5053398;28;20262;-63
2023/06/27 03:18:21;;;;;;;8.80;3.28;;;16.00;99.90;;;;;;5052901;28;20280;-63
2023/06/27 03:20:46;;;;;;;9.93;3.35;;;15.90;99.90;;;;;;5053171;28;20171;-63
2023/06/27 03:23:12;;;;;;;8.55;3.80;;;15.90;99.90;;;;;;5053318;28;20181;-63
2023/06/27 03:25:37;;;;;;;11.45;3.60;;;15.90;99.90;;;;;;5053226;28;20207;-63
2023/06/27 03:28:03;;;;;;;8.30;3.17;;;15.80;99.90;;;;;;5053187;28;20217;-63
2023/06/27 03:30:29;;;;;;;9.90;3.45;;;15.80;99.90;;;;;;5053096;28;20271;-63
2023/06/27 03:32:55;;;;;;;10.13;3.65;;;15.70;99.90;;;;;;5052992;28;20182;-63
2023/06/27 03:35:20;;;;;;;9.68;3.80;;;15.60;99.90;;;;;;5052945;28;20211;-63
2023/06/27 03:37:46;;;;;;;11.50;3.50;;;15.60;99.90;;;;;;5053502;28;20214;-63
2023/06/27 03:40:12;;;;;;;12.77;4.40;;;15.70;99.90;;;;;;5053210;28;20172;-63
2023/06/27 03:42:37;;;;;;;11.23;3.78;;;15.70;99.90;;;;;;5052964;28;20182;-63
2023/06/27 03:45:03;;;;;;;9.50;3.88;;;15.60;99.90;;;;;;5052970;28;20215;-63
2023/06/27 03:47:30;;;;;;;10.25;3.35;;;15.70;99.90;;;;;;5052822;28;20183;-63
2023/06/27 03:49:55;;;;;;;8.30;3.85;;;15.60;99.90;;;;;;5052861;28;20174;-63
2023/06/27 03:52:21;;;;;;;12.80;3.47;;;15.60;99.90;;;;;;5053083;28;20183;-63
2023/06/27 03:54:47;;;;;;;10.38;4.03;;;15.60;99.90;;;;;;5052771;28;20187;-63
2023/06/27 03:57:12;;;;;;;10.57;4.25;;;15.60;99.90;;;;;;5052984;28;20217;-63
2023/06/27 03:59:38;;;;;;;10.43;4.10;;;15.70;99.90;;;;;;5052891;28;20533;-63
2023/06/27 04:02:04;;;;;;;11.98;3.70;;;15.60;99.90;;;;;;5052860;28;20168;-63
2023/06/27 04:04:29;;;;;;;13.68;5.00;;;15.50;99.90;;;;;;5052674;28;20273;-63
2023/06/27 04:06:55;;;;;;;11.73;3.90;;;15.50;99.90;;;;;;5052962;28;20182;-63
2023/06/27 04:09:21;;;;;;;12.18;4.10;;;15.60;99.90;;;;;;5052966;28;20640;-64
2023/06/27 04:11:46;;;;;;;11.18;4.60;;;15.60;99.90;;;;;;5034966;28;20187;-63
2023/06/27 04:14:17;;;;;;;13.93;4.30;;;15.60;99.90;;;;;;5052763;28;20179;-64
2023/06/27 04:16:45;;;;;;;14.18;4.55;;;15.50;99.90;;;;;;5052672;28;20175;-63
2023/06/27 04:19:11;;;;;;;12.52;4.53;;;15.50;99.90;;;;;;5052626;28;20240;-63
2023/06/27 04:21:36;;;;;;;13.23;4.80;;;15.60;99.90;;;;;;5052817;28;20167;-63
2023/06/27 04:24:02;;;;;;;14.02;4.70;;;15.50;99.90;;;;;;5052662;28;20691;-63
2023/06/27 04:26:28;;;;;;;13.43;4.95;;;15.60;99.90;;;;;;5052653;28;20186;-63
2023/06/27 04:28:53;;;;;;;10.82;3.90;;;15.70;99.90;;;;;;5053215;28;20178;-63
2023/06/27 04:31:19;;;;;;;11.32;4.55;;;15.70;99.90;;;;;;5056364;28;20214;-63
2023/06/27 04:33:45;;;;;;;11.32;4.65;;;15.70;99.90;;;;;;5056146;28;20636;-63
2023/06/27 04:36:15;;;;;;;12.32;4.80;;;15.70;99.90;;;;;;5056086;28;20514;-63
2023/06/27 04:38:42;;;;;;;13.38;4.88;;;15.70;99.90;;;;;;5056528;28;20207;-63
2023/06/27 04:41:08;;;;;;;10.73;5.05;;;15.70;99.90;;;;;;5056264;28;20176;-63
2023/06/27 04:43:34;;;;;;;12.77;4.65;;;15.70;99.90;;;;;;5056091;28;20175;-64
2023/06/27 04:46:00;;;;;;;10.23;4.45;;;15.70;99.90;;;;;;5056102;28;20597;-63
2023/06/27 04:48:29;;;;;;;11.13;4.38;;;15.60;99.90;;;;;;5055968;28;20506;-63
2023/06/27 04:50:56;;;;;;;10.23;4.25;;;15.70;99.90;;;;;;5056148;28;20167;-63
2023/06/27 04:53:22;;;;;;;11.52;4.50;;;15.70;99.90;;;;;;5055989;28;20175;-63
2023/06/27 04:55:49;;;;;;;11.45;3.83;;;15.80;99.90;;;;;;5056136;28;20176;-63
2023/06/27 04:58:15;;;;;;;12.55;4.90;;;15.90;99.90;;;;;;5055946;28;20175;-64
2023/06/27 05:00:41;;;;;;;11.20;4.82;;;15.90;99.90;;;;;;5055763;28;20183;-63
2023/06/27 05:03:07;;;;;;;15.30;4.72;;;16.00;99.90;;;;;;5055715;28;20640;-63
2023/06/27 05:05:34;;;;;;;13.45;5.03;;;16.00;99.90;;;;;;5055731;28;20268;-63
2023/06/27 05:08:03;;;;;;;10.35;4.13;;;16.00;99.90;;;;;;5055707;28;20539;-63
2023/06/27 05:10:30;;;;;;;14.55;5.07;;;16.20;99.90;;;;;;5055584;28;20693;-63
2023/06/27 05:12:56;;;;;;;11.13;4.50;;;16.20;99.90;;;;;;5055690;28;20199;-63
2023/06/27 05:15:22;;;;;;;12.00;4.70;;;16.20;99.90;;;;;;5055417;28;20179;-63
2023/06/27 05:17:52;;;;;;;14.60;4.63;;;16.20;99.90;;;;;;5055532;28;20231;-63
2023/06/27 05:20:18;;;;;;;13.50;4.72;;;16.30;99.90;;;;;;5055438;28;20171;-63
2023/06/27 05:22:44;;;;;;;12.35;4.60;;;16.40;99.90;;;;;;5055539;28;20258;-63
2023/06/27 05:25:10;;;;;;;14.57;4.72;;;16.50;99.90;;;;;;5055269;28;20293;-63
2023/06/27 05:27:35;;;;;;;14.10;5.10;;;16.50;99.90;;;;;;5055223;28;20175;-63
2023/06/27 05:30:01;;;;;;;11.02;4.57;;;16.60;99.90;;;;;;5055122;28;20186;-63
2023/06/27 05:32:27;;;;;;;12.73;4.93;;;16.60;99.90;;;;;;5055345;28;20179;-63
2023/06/27 05:34:53;;;;;;;13.93;4.25;;;16.70;99.90;;;;;;5055226;28;20262;-63
2023/06/27 05:37:19;;;;;;;12.80;5.00;;;16.80;99.90;;;;;;5055168;28;20179;-62
2023/06/27 05:39:44;;;;;;;12.20;4.70;;;16.90;99.90;;;;;;5054610;28;20171;-63
2023/06/27 05:42:10;;;;;;;13.23;5.45;;;17.00;99.90;;;;;;5054935;28;20180;-64
2023/06/27 05:44:36;;;;;;;15.15;5.00;;;17.10;99.90;;;;;;5054780;28;20205;-63
2023/06/27 05:47:03;;;;;;;13.95;5.20;;;17.20;99.90;;;;;;5055065;28;20176;-64
2023/06/27 05:49:28;;;;;;;15.18;5.32;;;17.40;99.90;;;;;;5054991;28;20514;-63
2023/06/27 05:51:54;;;;;;;13.30;5.00;;;17.40;99.90;;;;;;5054877;28;20182;-63
2023/06/27 05:54:19;;;;;;;12.32;5.13;;;17.40;99.90;;;;;;5054781;28;20268;-63
2023/06/27 05:56:45;;;;;;;11.52;5.03;;;17.60;99.90;;;;;;5054679;28;20182;-63
2023/06/27 05:59:11;;;;;;;13.50;4.72;;;17.70;99.90;;;;;;5054575;28;20179;-63
2023/06/27 06:01:37;;;;;;;11.80;4.45;;;17.70;99.90;;;;;;5054831;28;20167;-63
2023/06/27 06:04:04;;;;;;;13.95;4.60;;;17.90;99.90;;;;;;5054545;28;20556;-63
2023/06/27 06:06:30;;;;;;;10.70;4.57;;;17.90;99.90;;;;;;5054560;28;20184;-63
2023/06/27 06:08:56;;;;;;;11.57;5.05;;;18.10;99.90;;;;;;5054444;28;20185;-63
2023/06/27 06:11:21;;;;;;;12.73;5.18;;;18.20;99.90;;;;;;5054442;28;20250;-63
2023/06/27 06:13:47;;;;;;;13.23;5.20;;;18.30;99.90;;;;;;5054256;28;20180;-63
2023/06/27 06:16:13;;;;;;;11.98;4.90;;;18.40;99.90;;;;;;5054476;28;20178;-63
2023/06/27 06:18:38;;;;;;;12.18;4.60;;;18.50;99.90;;;;;;5054110;28;20233;-63
2023/06/27 06:21:04;;;;;;;11.13;4.43;;;18.60;99.90;;;;;;5054166;28;20633;-63
2023/06/27 06:23:29;;;;;;;12.55;4.90;;;18.60;99.90;;;;;;5054120;28;20179;-63
2023/06/27 06:25:55;;;;;;;13.88;5.10;;;18.70;99.90;;;;;;5054167;28;20266;-63
2023/06/27 06:28:21;;;;;;;11.77;4.75;;;18.60;99.90;;;;;;5053960;28;20195;-62
2023/06/27 06:30:46;;;;;;;12.10;4.57;;;18.80;99.90;;;;;;5054212;28;20463;-62
2023/06/27 06:33:12;;;;;;;10.15;4.53;;;18.90;99.90;;;;;;5054154;28;20579;-63
2023/06/27 06:35:38;;;;;;;15.02;4.90;;;19.00;99.90;;;;;;5054020;28;20206;-63
2023/06/27 06:38:04;;;;;;;12.60;5.20;;;19.00;99.90;;;;;;5054229;28;20224;-63
2023/06/27 06:40:30;;;;;;;13.65;5.05;;;19.10;99.90;;;;;;5053883;28;20175;-63
2023/06/27 06:42:56;;;;;;;13.23;4.70;;;19.20;99.90;;;;;;5053683;28;20531;-62
2023/06/27 06:45:21;;;;;;;11.48;4.50;;;19.20;99.90;;;;;;5053877;28;20223;-63
2023/06/27 06:47:47;;;;;;;12.60;5.00;;;19.20;99.90;;;;;;5053836;28;20180;-63
2023/06/27 06:50:14;;;;;;;14.63;5.03;;;19.30;99.90;;;;;;5053821;28;20168;-62
2023/06/27 06:52:40;;;;;;;11.13;4.10;;;19.30;99.90;;;;;;5052983;28;20183;-63
2023/06/27 06:55:06;;;;;;;11.68;4.18;;;19.50;99.90;;;;;;5053656;28;20187;-62
2023/06/27 06:57:32;;;;;;;12.93;4.88;;;19.60;99.90;;;;;;5053551;28;20174;-62
2023/06/27 06:59:57;;;;;;;11.38;4.70;;;19.60;99.90;;;;;;5053979;28;20520;-62
2023/06/27 07:02:23;;;;;;;11.82;4.57;;;19.70;99.90;;;;;;5053616;28;20168;-63
2023/06/27 07:04:48;;;;;;;11.38;4.85;;;19.80;99.90;;;;;;5053458;28;20286;-63
2023/06/27 07:07:14;;;;;;;11.50;4.50;;;19.80;99.90;;;;;;5053321;28;20183;-63
2023/06/27 07:09:40;;;;;;;11.60;4.43;;;19.90;99.90;;;;;;5053417;28;20179;-62
2023/06/27 07:12:06;;;;;;;8.40;3.67;;;20.00;99.90;;;;;;5053319;28;20178;-63
2023/06/27 07:14:31;;;;;;;11.15;3.45;;;20.20;99.90;;;;;;5053261;28;20179;-63
2023/06/27 07:16:57;;;;;;;6.85;3.17;;;20.20;99.90;;;;;;5053199;28;20180;-63
2023/06/27 07:19:22;;;;;;;8.38;3.30;;;20.20;99.90;;;;;;5053253;28;20175;-63
2023/06/27 07:21:48;;;;;;;5.45;2.80;;;20.30;99.90;;;;;;5053249;28;20176;-63
2023/06/27 07:24:14;;;;;;;9.02;3.50;;;20.30;99.90;;;;;;5053169;28;20205;-63
2023/06/27 07:26:40;;;;;;;9.75;3.50;;;20.40;99.90;;;;;;5052781;28;20650;-62
2023/06/27 07:29:05;;;;;;;9.63;3.10;;;20.30;99.90;;;;;;5052906;28;20262;-63
2023/06/27 07:31:31;;;;;;;8.30;3.10;;;20.40;99.90;;;;;;5053192;28;20186;-62
2023/06/27 07:33:57;;;;;;;6.20;2.65;;;20.50;99.90;;;;;;5053151;28;20182;-63
2023/06/27 07:36:22;;;;;;;8.30;3.00;;;20.50;99.90;;;;;;5053177;28;20601;-62
2023/06/27 07:38:48;;;;;;;22.15;3.72;;;20.50;99.90;;;;;;5052934;28;20179;-62
2023/06/27 07:41:13;;;;;;;7.78;2.85;;;20.60;99.90;;;;;;5052839;28;20501;-63
2023/06/27 07:43:39;;;;;;;4.53;2.78;;;20.60;99.90;;;;;;5052834;28;20171;-62
2023/06/27 07:46:05;;;;;;;5.53;2.60;;;20.50;99.90;;;;;;5053149;28;20272;-62
2023/06/27 07:48:30;;;;;;;6.45;2.30;;;20.50;99.90;;;;;;5053021;28;20176;-62
2023/06/27 07:50:56;;;;;;;6.45;2.60;;;20.50;99.90;;;;;;5052811;28;20262;-63
2023/06/27 07:53:21;;;;;;;6.05;2.35;;;20.50;99.90;;;;;;5052841;28;20616;-63
2023/06/27 07:55:47;;;;;;;5.75;2.70;;;20.60;99.90;;;;;;5052845;28;20183;-63
2023/06/27 07:58:13;;;;;;;7.93;3.80;;;20.50;99.90;;;;;;5052690;28;20566;-62
2023/06/27 08:00:39;;;;;;;8.10;3.70;;;20.50;99.90;;;;;;5052949;28;20259;-62
2023/06/27 08:03:04;;;;;;;11.75;3.90;;;20.50;99.90;;;;;;5053847;28;20205;-63
2023/06/27 08:05:34;;;;;;;6.20;3.10;;;20.30;99.90;;;;;;5056816;28;20230;-62
2023/06/27 08:08:01;;;;;;;8.32;3.28;;;20.50;99.90;;;;;;5056700;28;20183;-63
2023/06/27 08:10:28;;;;;;;6.43;3.10;;;20.60;99.90;;;;;;5056549;28;20202;-63
2023/06/27 08:12:54;;;;;;;6.15;2.70;;;20.80;99.90;;;;;;5056614;28;20194;-62
2023/06/27 08:15:20;;;;;;;7.30;2.38;;;21.00;99.90;;;;;;5038879;28;20262;-63
2023/06/27 08:17:45;;;;;;;3.90;2.03;;;21.20;99.90;;;;;;5056470;28;20733;-63
2023/06/27 08:20:11;;;;;;;7.85;2.45;;;21.30;99.90;;;;;;5056601;28;20203;-63
2023/06/27 08:22:37;;;;;;;8.27;2.75;;;21.40;99.90;;;;;;5056521;28;20251;-63
2023/06/27 08:25:03;;;;;;;5.40;2.55;;;21.60;99.90;;;;;;5056334;28;20326;-63
2023/06/27 08:27:28;;;;;;;5.20;2.05;;;21.50;99.90;;;;;;5056274;28;20207;-63
2023/06/27 08:29:54;;;;;;;5.70;2.05;;;21.60;99.90;;;;;;5056515;28;20168;-63
2023/06/27 08:32:19;;;;;;;4.03;1.90;;;21.90;99.90;;;;;;5056725;28;20229;-63
2023/06/27 08:34:45;;;;;;;4.57;2.00;;;22.00;99.90;;;;;;5056204;28;20175;-63
2023/06/27 08:37:11;;;;;;;9.30;2.22;;;22.10;99.90;;;;;;5056257;28;20203;-63
2023/06/27 08:39:37;;;;;;;6.43;2.70;;;22.00;99.90;;;;;;5056079;28;20182;-63
2023/06/27 08:42:03;;;;;;;6.10;2.30;;;22.20;99.90;;;;;;5056216;28;20684;-62
2023/06/27 08:44:29;;;;;;;7.80;1.90;;;22.40;99.90;;;;;;5056135;28;20206;-63
2023/06/27 08:47:02;;;;;;;5.00;2.00;;;22.70;99.90;;;;;;5055953;28;20644;-63
2023/06/27 08:49:32;;;;;;;6.93;1.80;;;22.80;99.90;;;;;;5055969;28;20206;-63
2023/06/27 08:52:01;;;;;;;6.45;2.13;;;22.90;99.90;;;;;;5055660;28;20190;-64
2023/06/27 08:54:39;;;;;;;6.30;1.70;;;22.90;99.90;;;;;;5055500;28;20193;-63
2023/06/27 08:57:06;;;;;;;3.13;1.70;;;23.10;99.90;;;;;;5055874;28;20167;-63
2023/06/27 08:59:37;;;;;;;6.35;1.60;;;23.30;99.90;;;;;;5055819;28;20254;-64
2023/06/27 09:02:06;;;;;;;3.72;1.50;;;23.20;99.90;;;;;;5055716;28;20167;-63
2023/06/27 09:04:33;;;;;;;3.80;1.83;;;23.40;99.90;;;;;;5055456;28;20594;-64
2023/06/27 09:07:00;;;;;;;4.32;2.00;;;23.60;98.20;;;;;;5055446;28;20183;-64
2023/06/27 09:09:27;;;;;;;7.07;2.10;;;23.60;98.40;;;;;;5055776;28;20167;-64
2023/06/27 09:11:53;;;;;;;7.68;2.00;;;23.70;99.70;;;;;;5055760;28;20679;-64
2023/06/27 09:14:19;;;;;;;4.55;1.55;;;23.60;99.90;;;;;;5054983;28;20181;-63
2023/06/27 09:16:45;;;;;;;3.70;1.70;;;23.20;99.20;;;;;;5055230;28;20502;-62
2023/06/27 09:19:10;;;;;;;4.82;1.80;;;23.30;99.90;;;;;;5055421;28;20193;-63
2023/06/27 09:21:38;;;;;;;3.80;1.70;;;23.10;99.90;;;;;;5055262;28;20176;-63
2023/06/27 09:24:07;;;;;;;5.75;1.80;;;23.10;99.80;;;;;;5055389;28;20210;-63
2023/06/27 09:26:33;;;;;;;5.75;2.00;;;23.30;99.90;;;;;;5055462;28;20182;-63
2023/06/27 09:29:00;;;;;;;4.88;1.42;;;23.00;99.90;;;;;;5055387;28;20171;-63
2023/06/27 09:31:27;;;;;;;4.55;1.90;;;23.00;99.90;;;;;;5055191;28;20246;-63
2023/06/27 09:34:06;;;;;;;3.50;1.52;;;22.60;99.70;;;;;;5055036;28;20638;-63
2023/06/27 09:36:39;;;;;;;5.00;1.80;;;22.30;99.90;;;;;;5055315;28;20185;-63
2023/06/27 09:39:10;;;;;;;3.17;1.70;;;22.10;99.90;;;;;;5055240;28;20175;-63
2023/06/27 09:41:47;;;;;;;3.28;2.03;;;21.80;99.90;;;;;;5054990;28;20183;-63
2023/06/27 09:44:17;;;;;;;4.55;1.55;;;21.70;99.90;;;;;;5054895;28;20222;-63
2023/06/27 09:46:44;;;;;;;5.10;1.60;;;21.70;99.90;;;;;;5055002;28;20167;-63
2023/06/27 09:49:10;;;;;;;6.15;1.63;;;21.70;99.90;;;;;;5055076;28;20512;-63
2023/06/27 09:51:36;;;;;;;4.97;1.45;;;21.70;99.90;;;;;;5054526;28;20182;-63
2023/06/27 09:54:02;;;;;;;5.20;1.98;;;21.70;99.90;;;;;;5054605;28;20179;-63
2023/06/27 09:56:32;;;;;;;3.40;1.90;;;21.90;99.90;;;;;;5054656;28;20220;-63
2023/06/27 09:59:08;;;;;;;4.07;1.95;;;22.30;99.90;;;;;;5054594;28;20660;-63
2023/06/27 10:01:36;;;;;;;5.15;1.90;;;22.90;99.50;;;;;;5054693;28;20182;-63
2023/06/27 10:04:02;;;;;;;3.42;1.52;;;22.80;98.80;;;;;;5054629;28;20687;-63
2023/06/27 10:06:28;;;;;;;3.72;1.60;;;22.90;99.70;;;;;;5054529;28;20183;-64
2023/06/27 10:08:55;;;;;;;5.32;1.70;;;23.00;99.50;;;;;;5054622;28;20229;-63
2023/06/27 10:11:21;;;;;;;5.03;1.63;;;23.00;99.10;;;;;;5054530;28;20648;-63
2023/06/27 10:13:47;;;;;;;6.07;1.83;;;22.80;99.90;;;;;;5054277;28;20313;-63
2023/06/27 10:16:13;;;;;;;3.63;1.42;;;22.40;99.90;;;;;;5054545;28;20199;-63
2023/06/27 10:18:39;;;;;;;3.05;1.40;;;22.30;99.90;;;;;;5054039;28;20231;-63
2023/06/27 10:21:04;;;;;;;3.95;1.70;;;22.00;99.90;;;;;;5054431;28;20179;-63
2023/06/27 10:23:32;;;;;;;2.78;1.30;;;21.70;99.90;;;;;;5054359;28;20367;-63
2023/06/27 10:25:59;;;;;;;2.38;1.30;;;21.70;99.90;;;;;;5054067;28;20309;-63
2023/06/27 10:28:28;;;;;;;3.60;1.40;;;21.70;99.90;;;;;;5054027;28;20644;-64
2023/06/27 10:30:54;;;;;;;3.00;1.38;;;21.60;99.90;;;;;;5054097;28;20659;-63
2023/06/27 10:33:31;;;;;;;4.40;1.30;;;21.60;99.90;;;;;;5054138;28;20202;-63
2023/06/27 10:36:05;;;;;;;2.45;1.23;;;21.70;99.90;;;;;;5054209;28;20190;-63
2023/06/27 10:38:39;;;;;;;3.47;1.20;;;21.90;99.90;;;;;;5053873;28;20172;-63
2023/06/27 10:41:09;;;;;;;4.93;1.42;;;21.90;99.90;;;;;;5054094;28;20615;-63
2023/06/27 10:43:52;;;;;;;3.15;1.20;;;22.00;99.90;;;;;;5054004;28;20171;-64
2023/06/27 10:46:26;;;;;;;2.53;1.38;;;22.10;99.90;;;;;;5053767;28;20187;-63
2023/06/27 10:48:57;;;;;;;4.22;1.40;;;22.20;99.80;;;;;;5053801;28;20178;-63
2023/06/27 10:51:32;;;;;;;4.07;1.35;;;22.10;99.80;;;;;;5054095;28;20170;-63
2023/06/27 10:54:14;;;;;;;3.83;1.30;;;22.20;99.90;;;;;;5053958;28;20166;-64
2023/06/27 10:56:41;;;;;;;4.47;1.50;;;22.20;99.90;;;;;;5053780;28;20175;-63
2023/06/27 10:59:14;;;;;;;2.25;1.27;;;22.50;99.90;;;;;;5053636;28;20167;-64
2023/06/27 11:02:06;;;;;;;3.28;1.30;;;22.60;98.80;;;;;;5053484;28;20176;-64
2023/06/27 11:04:43;;;;;;;4.38;1.70;;;22.80;99.10;;;;;;5042757;28;20221;-64
2023/06/27 11:07:14;;;;;;;4.22;1.48;;;22.80;99.30;;;;;;5053597;28;20246;-64
2023/06/27 11:09:53;;;;;;;2.45;1.27;;;22.80;98.60;;;;;;5053571;28;20498;-63
2023/06/27 11:12:21;;;;;;;3.95;1.33;;;22.70;99.00;;;;;;5053283;28;20175;-63
2023/06/27 11:14:48;;;;;;;7.47;1.60;;;22.70;98.50;;;;;;5053429;28;20187;-63
2023/06/27 11:17:17;;;;;;;4.50;1.42;;;22.80;98.60;;;;;;5040341;28;20222;-63
2023/06/27 11:19:43;;;;;;;2.47;1.40;;;22.90;99.30;;;;;;5073527;28;20175;-64
2023/06/27 11:22:10;;;;;;;4.95;1.65;;;22.90;98.80;;;;;;5073340;28;20167;-64
2023/06/27 11:24:36;;;;;;;3.45;1.30;;;22.80;98.40;;;;;;5073224;28;20194;-64
2023/06/27 11:27:06;;;;;;;4.10;1.30;;;22.70;98.00;;;;;;5073338;28;20177;-63
2023/06/27 11:29:33;;;;;;;4.70;1.30;;;22.60;98.70;;;;;;5073393;28;20244;-63
2023/06/27 11:31:59;;;;;;;3.10;1.70;;;22.50;99.30;;;;;;5073242;28;20659;-63
2023/06/27 11:34:25;;;;;;;2.85;1.27;;;22.50;98.80;;;;;;5073386;28;20174;-64
2023/06/27 11:36:51;;;;;;;3.42;1.40;;;22.40;99.90;;;;;;5073178;28;20654;-64
2023/06/27 11:39:16;;;;;;;4.25;1.35;;;22.30;98.90;;;;;;5072661;28;20532;-65
2023/06/27 11:41:45;;;;;;;3.55;1.42;;;22.50;99.30;;;;;;5073306;28;20179;-63
2023/06/27 11:44:15;;;;;;;4.53;1.58;;;22.40;98.50;;;;;;5073049;28;20612;-64
2023/06/27 11:46:51;;;;;;;3.78;1.50;;;22.40;99.20;;;;;;5073070;28;20186;-63
2023/06/27 11:49:21;;;;;;;2.83;1.33;;;22.40;99.30;;;;;;5073001;28;20632;-63
2023/06/27 11:51:46;;;;;;;2.70;1.40;;;22.60;98.90;;;;;;5072801;28;20198;-63
2023/06/27 11:54:16;;;;;;;3.88;1.30;;;22.50;98.20;;;;;;5073123;28;20634;-63
2023/06/27 11:56:42;;;;;;;2.92;1.30;;;22.60;96.80;;;;;;5073089;28;20246;-63
2023/06/27 11:59:08;;;;;;;3.28;1.40;;;22.60;99.20;;;;;;5072999;28;20205;-63
2023/06/27 12:01:41;;;;;;;2.65;1.20;;;22.80;98.50;;;;;;5072945;28;20175;-64
2023/06/27 12:04:15;;;;;;;3.55;1.40;;;23.00;98.50;;;;;;5072731;28;20555;-63
2023/06/27 12:06:42;;;;;;;6.65;1.60;;;23.10;97.40;;;;;;5073141;28;20192;-63
2023/06/27 12:09:17;;;;;;;2.95;1.30;;;23.00;97.30;;;;;;5072945;28;20187;-63
2023/06/27 12:11:43;;;;;;;5.03;1.70;;;22.90;98.40;;;;;;5072896;28;20554;-63
2023/06/27 12:14:09;;;;;;;5.22;1.63;;;23.00;99.50;;;;;;5072867;28;20265;-63
2023/06/27 12:16:35;;;;;;;5.97;1.80;;;23.50;99.00;;;;;;5072619;28;20185;-63
2023/06/27 12:19:07;;;;;;;8.15;1.73;;;23.70;97.40;;;;;;5054232;28;20686;-63
2023/06/27 12:21:33;;;;;;;4.97;1.67;;;23.70;97.90;;;;;;5052855;28;20238;-63
2023/06/27 12:23:59;;;;;;;3.55;1.40;;;23.70;98.30;;;;;;5052643;28;20203;-63
2023/06/27 12:26:25;;;;;;;6.10;1.92;;;23.80;97.70;;;;;;5052646;28;20179;-64
2023/06/27 12:28:58;;;;;;;5.85;1.80;;;23.90;98.00;;;;;;5052568;28;20179;-63
2023/06/27 12:31:24;;;;;;;6.32;1.67;;;23.80;98.20;;;;;;5052581;28;20677;-64
2023/06/27 12:33:51;;;;;;;3.28;1.55;;;23.50;99.30;;;;;;5052699;28;20182;-63
2023/06/27 12:36:24;;;;;;;6.50;1.92;;;23.30;99.10;;;;;;5052719;28;20297;-64
2023/06/27 12:38:51;;;;;;;3.58;1.67;;;23.30;99.40;;;;;;5052590;28;20187;-63
2023/06/27 12:41:21;;;;;;;3.67;1.60;;;23.40;99.40;;;;;;5052533;28;20716;-64
2023/06/27 12:43:47;;;;;;;2.75;1.65;;;23.50;98.40;;;;;;5052260;28;20182;-64